Time,TemperatureF,DewpointF,PressureIn,WindDirection,WindDirectionDegrees,WindSpeedMPH,WindSpeedGustMPH,Humidity,HourlyPrecipIn,Conditions,Clouds,dailyrainin,SoftwareType,DateUTC
2013-04-01 00:00:00,57.4,0.0,29.87,WSW,251,15.0,15.0,0,0.00,,---,0.00,VWS V13.01,2013-04-01 04:00:00,
2013-04-01 00:15:00,57.6,0.0,29.87,WSW,252,15.0,16.0,0,0.00,,---,0.00,VWS V13.01,2013-04-01 04:15:00,
2013-04-01 00:30:00,57.6,0.0,29.87,WSW,248,14.0,18.0,0,0.00,,---,0.00,VWS V13.01,2013-04-01 04:30:00,
2013-04-01 00:45:00,57.5,0.0,29.87,WSW,257,13.0,16.0,0,0.01,,---,0.01,VWS V13.01,2013-04-01 04:45:00,
2013-04-01 01:00:00,57.4,0.0,29.87,WSW,254,12.0,12.0,0,0.01,,---,0.01,VWS V13.01,2013-04-01 05:00:00,
2013-04-01 01:30:00,57.1,0.0,29.86,WSW,250,11.0,13.0,0,0.01,,---,0.01,VWS V13.01,2013-04-01 05:30:00,
2013-04-01 01:45:00,57.3,0.0,29.85,West,259,9.0,13.0,0,0.01,,---,0.01,VWS V13.01,2013-04-01 05:45:00,
2013-04-01 02:00:00,57.2,0.0,29.85,West,262,10.0,12.0,0,0.00,,---,0.01,VWS V13.01,2013-04-01 06:00:00,
2013-04-01 02:15:00,57.0,0.0,29.84,West,266,4.0,9.0,0,0.00,,---,0.01,VWS V13.01,2013-04-01 06:15:00,
2013-04-01 02:30:00,56.8,0.0,29.83,West,267,5.0,9.0,0,0.00,,---,0.01,VWS V13.01,2013-04-01 06:30:00,
2013-04-01 02:45:00,56.6,0.0,29.83,WSW,256,8.0,9.0,0,0.00,,---,0.01,VWS V13.01,2013-04-01 06:45:00,
2013-04-01 03:00:00,56.3,0.0,29.84,WSW,246,6.0,9.0,0,0.00,,---,0.01,VWS V13.01,2013-04-01 07:00:00,
2013-04-01 03:15:00,56.5,0.0,29.83,WSW,246,10.0,11.0,0,0.00,,---,0.01,VWS V13.01,2013-04-01 07:15:00,
2013-04-01 03:45:00,56.6,0.0,29.82,West,259,6.0,9.0,0,0.00,,---,0.01,VWS V13.01,2013-04-01 07:45:00,
2013-04-01 04:00:00,56.6,0.0,29.83,WSW,246,6.0,7.0,0,0.00,,---,0.01,VWS V13.01,2013-04-01 08:00:00,
2013-04-01 04:15:00,56.2,0.0,29.82,WSW,241,5.0,6.0,0,0.00,,---,0.01,VWS V13.01,2013-04-01 08:15:00,
2013-04-01 04:30:00,56.3,0.0,29.82,WSW,257,4.0,4.0,0,0.00,,---,0.01,VWS V13.01,2013-04-01 08:30:00,
2013-04-01 04:45:00,56.4,0.0,29.82,WSW,258,3.0,5.0,0,0.00,,---,0.01,VWS V13.01,2013-04-01 08:45:00,
2013-04-01 05:00:00,56.4,0.0,29.82,WSW,258,3.0,3.0,0,0.00,,---,0.01,VWS V13.01,2013-04-01 09:00:00,
2013-04-01 05:15:00,56.4,0.0,29.81,WSW,258,0.0,0.0,0,0.00,,---,0.01,VWS V13.01,2013-04-01 09:15:00,
2013-04-01 05:30:00,57.0,0.0,29.82,WNW,294,4.0,4.0,0,0.00,,---,0.01,VWS V13.01,2013-04-01 09:30:00,
2013-04-01 06:00:00,58.2,0.0,29.83,WNW,300,0.0,0.0,0,0.00,,---,0.01,VWS V13.01,2013-04-01 10:00:00,
2013-04-01 06:15:00,58.6,0.0,29.84,NW,312,0.0,2.0,0,0.00,,---,0.01,VWS V13.01,2013-04-01 10:15:00,
2013-04-01 06:45:00,59.9,0.0,29.85,WNW,294,0.0,0.0,0,0.00,,---,0.01,VWS V13.01,2013-04-01 10:45:00,
2013-04-01 07:00:00,59.6,0.0,29.86,WNW,294,0.0,0.0,0,0.00,,---,0.01,VWS V13.01,2013-04-01 11:00:00,
2013-04-01 07:15:00,59.0,0.0,29.86,WNW,294,0.0,0.0,0,0.00,,---,0.01,VWS V13.01,2013-04-01 11:15:00,
2013-04-01 07:30:00,57.6,0.0,29.87,WNW,294,0.0,0.0,0,0.00,,---,0.01,VWS V13.01,2013-04-01 11:30:00,
2013-04-01 07:45:00,57.2,0.0,29.87,SSW,212,4.0,5.0,0,0.00,,---,0.01,VWS V13.01,2013-04-01 11:45:00,
2013-04-01 08:00:00,57.1,0.0,29.87,SSW,212,4.0,5.0,0,0.00,,---,0.01,VWS V13.01,2013-04-01 12:00:00,
2013-04-01 08:15:00,56.9,0.0,29.87,SW,214,6.0,6.0,0,0.00,,---,0.01,VWS V13.01,2013-04-01 12:15:00,
2013-04-01 08:30:00,57.0,0.0,29.87,SW,222,6.0,7.0,0,0.00,,---,0.01,VWS V13.01,2013-04-01 12:30:00,
2013-04-01 09:00:00,57.0,0.0,29.88,SW,234,10.0,11.0,0,0.00,,---,0.01,VWS V13.01,2013-04-01 13:00:00,
2013-04-01 09:15:00,57.1,0.0,29.87,WSW,242,9.0,10.0,0,0.00,,---,0.01,VWS V13.01,2013-04-01 13:15:00,
2013-04-01 09:30:00,56.8,0.0,29.88,SW,229,15.0,15.0,0,0.00,,---,0.01,VWS V13.01,2013-04-01 13:30:00,
2013-04-01 09:45:00,57.2,0.0,29.87,SW,229,7.0,10.0,0,0.00,,---,0.01,VWS V13.01,2013-04-01 13:45:00,
2013-04-01 10:00:00,57.3,0.0,29.85,SW,232,5.0,6.0,0,0.00,,---,0.01,VWS V13.01,2013-04-01 14:00:00,
2013-04-01 10:15:00,57.3,0.0,29.85,SSW,211,11.0,12.0,0,0.00,,---,0.01,VWS V13.01,2013-04-01 14:15:00,
2013-04-01 10:30:00,57.4,0.0,29.87,SW,232,13.0,15.0,0,0.00,,---,0.01,VWS V13.01,2013-04-01 14:30:00,
2013-04-01 11:00:00,57.1,0.0,29.87,SW,232,14.0,15.0,0,0.00,,---,0.01,VWS V13.01,2013-04-01 15:00:00,
2013-04-01 11:15:00,57.1,0.0,29.87,SW,229,17.0,18.0,0,0.00,,---,0.01,VWS V13.01,2013-04-01 15:15:00,
2013-04-01 11:30:00,57.3,0.0,29.85,SW,234,16.0,17.0,0,0.00,,---,0.01,VWS V13.01,2013-04-01 15:30:00,
2013-04-01 12:00:00,58.3,0.0,29.85,West,260,8.0,9.0,0,0.00,,---,0.01,VWS V13.01,2013-04-01 16:00:00,
2013-04-01 12:15:00,59.8,0.0,29.85,West,279,3.0,9.0,0,0.00,,---,0.01,VWS V13.01,2013-04-01 16:15:00,
2013-04-01 12:30:00,61.2,0.0,29.85,WNW,300,2.0,4.0,0,0.00,,---,0.01,VWS V13.01,2013-04-01 16:30:00,
2013-04-01 12:45:00,58.7,0.0,29.84,WSW,240,9.0,11.0,0,0.00,,---,0.01,VWS V13.01,2013-04-01 16:45:00,
2013-04-01 13:30:00,58.0,0.0,29.83,WSW,252,6.0,7.0,0,0.01,,---,0.02,VWS V13.01,2013-04-01 17:30:00,
2013-04-01 13:45:00,59.3,0.0,29.82,WSW,258,4.0,7.0,0,0.01,,---,0.02,VWS V13.01,2013-04-01 17:45:00,
2013-04-01 14:15:00,58.6,0.0,29.82,West,259,3.0,5.0,0,0.01,,---,0.02,VWS V13.01,2013-04-01 18:15:00,
2013-04-01 14:30:00,58.7,0.0,29.82,West,259,0.0,0.0,0,0.01,,---,0.02,VWS V13.01,2013-04-01 18:30:00,
2013-04-01 14:45:00,59.2,0.0,29.81,West,259,0.0,0.0,0,0.00,,---,0.02,VWS V13.01,2013-04-01 18:45:00,
2013-04-01 15:00:00,59.4,0.0,29.81,West,259,2.0,2.0,0,0.00,,---,0.02,VWS V13.01,2013-04-01 19:00:00,
2013-04-01 15:15:00,59.0,0.0,29.81,WSW,250,3.0,5.0,0,0.00,,---,0.02,VWS V13.01,2013-04-01 19:15:00,
2013-04-01 15:30:00,59.5,0.0,29.81,SW,214,4.0,10.0,0,0.00,,---,0.02,VWS V13.01,2013-04-01 19:30:00,
2013-04-01 15:45:00,58.5,0.0,29.81,SW,226,9.0,11.0,0,0.00,,---,0.02,VWS V13.01,2013-04-01 19:45:00,
2013-04-01 16:00:00,58.4,0.0,29.81,SW,225,10.0,10.0,0,0.00,,---,0.02,VWS V13.01,2013-04-01 20:00:00,
2013-04-01 16:15:00,58.5,0.0,29.81,SW,232,7.0,10.0,0,0.00,,---,0.02,VWS V13.01,2013-04-01 20:15:00,
2013-04-01 16:30:00,58.8,0.0,29.81,SW,236,7.0,10.0,0,0.00,,---,0.02,VWS V13.01,2013-04-01 20:30:00,
2013-04-01 16:45:00,59.0,0.0,29.81,WSW,245,6.0,9.0,0,0.00,,---,0.02,VWS V13.01,2013-04-01 20:45:00,
2013-04-01 17:00:00,58.8,0.0,29.82,WSW,240,4.0,9.0,0,0.00,,---,0.02,VWS V13.01,2013-04-01 21:00:00,
2013-04-01 17:15:00,58.5,0.0,29.82,WSW,240,5.0,6.0,0,0.00,,---,0.02,VWS V13.01,2013-04-01 21:15:00,
2013-04-01 17:45:00,58.1,0.0,29.82,WSW,244,4.0,5.0,0,0.00,,---,0.02,VWS V13.01,2013-04-01 21:45:00,
2013-04-01 18:00:00,57.7,0.0,29.83,WSW,244,4.0,5.0,0,0.00,,---,0.02,VWS V13.01,2013-04-01 22:00:00,
2013-04-01 18:15:00,57.3,0.0,29.83,WSW,244,5.0,6.0,0,0.00,,---,0.02,VWS V13.01,2013-04-01 22:15:00,
2013-04-01 18:30:00,57.0,0.0,29.83,WSW,244,2.0,4.0,0,0.00,,---,0.02,VWS V13.01,2013-04-01 22:30:00,
2013-04-01 18:45:00,56.7,0.0,29.84,WSW,244,0.0,0.0,0,0.00,,---,0.02,VWS V13.01,2013-04-01 22:45:00,
2013-04-01 19:00:00,56.7,0.0,29.84,WSW,244,0.0,2.0,0,0.00,,---,0.02,VWS V13.01,2013-04-01 23:00:00,
2013-04-01 19:30:00,56.4,0.0,29.84,WSW,244,0.0,0.0,0,0.00,,---,0.02,VWS V13.01,2013-04-01 23:30:00,
2013-04-01 19:45:00,56.2,0.0,29.85,WSW,244,0.0,0.0,0,0.00,,---,0.02,VWS V13.01,2013-04-01 23:45:00,
2013-04-01 20:21:00,56.4,0.0,29.84,WSW,244,0.0,0.0,0,0.00,,---,0.02,VWS V13.01,2013-04-02 00:21:00,
2013-04-01 20:45:00,56.5,0.0,29.87,WSW,244,0.0,0.0,0,0.00,,---,0.02,VWS V13.01,2013-04-02 00:45:00,
2013-04-01 21:00:00,56.7,0.0,29.87,WSW,244,4.0,4.0,0,0.00,,---,0.02,VWS V13.01,2013-04-02 01:00:00,
2013-04-01 21:06:00,56.3,0.0,29.85,WSW,244,0.0,0.0,0,0.00,,---,0.02,VWS V13.01,2013-04-02 01:06:00,
2013-04-01 21:15:00,56.7,0.0,29.87,WSW,244,4.0,5.0,0,0.00,,---,0.02,VWS V13.01,2013-04-02 01:15:00,
2013-04-01 21:21:00,56.3,0.0,29.86,WSW,244,0.0,0.0,0,0.00,,---,0.02,VWS V13.01,2013-04-02 01:21:00,
2013-04-01 21:36:00,56.5,0.0,29.87,WSW,244,0.0,0.0,0,0.00,,---,0.02,VWS V13.01,2013-04-02 01:36:00,
2013-04-01 21:45:00,55.9,0.0,29.88,WSW,244,0.0,0.0,0,0.00,,---,0.02,VWS V13.01,2013-04-02 01:45:00,
2013-04-01 22:15:00,55.7,0.0,29.88,WSW,244,3.0,4.0,0,0.00,,---,0.02,VWS V13.01,2013-04-02 02:15:00,
2013-04-01 22:30:00,55.6,0.0,29.88,WSW,246,0.0,0.0,0,0.00,,---,0.02,VWS V13.01,2013-04-02 02:30:00,
2013-04-01 23:00:00,55.9,0.0,29.89,West,273,3.0,4.0,0,0.00,,---,0.02,VWS V13.01,2013-04-02 03:00:00,
2013-04-01 23:06:00,55.7,0.0,29.88,WSW,244,0.0,0.0,0,0.00,,---,0.02,VWS V13.01,2013-04-02 03:06:00,
2013-04-01 23:15:00,56.4,0.0,29.89,WNW,290,0.0,0.0,0,0.01,,---,0.03,VWS V13.01,2013-04-02 03:15:00,
2013-04-01 23:30:00,56.2,0.0,29.90,NNE,17,0.0,0.0,0,0.01,,---,0.03,VWS V13.01,2013-04-02 03:30:00,
2013-04-01 23:45:00,55.4,0.0,29.91,NNE,16,0.0,0.0,0,0.01,,---,0.03,VWS V13.01,2013-04-02 03:45:00,
2013-04-01 23:51:00,55.4,0.0,29.88,WSW,248,3.0,4.0,0,0.00,,---,0.02,VWS V13.01,2013-04-02 03:51:00,